Kewa, Washington
Current Conditions -  °F | °C
As of 6:25 PM on Wednesday 22 Oct 2014 (Local Time) from KOMK Reporting Station
Light Rain Light Rain  
Wind Chill: 50°   Ceiling: 2000
Heat Index: 50°   Visibility: 7mi
Dew Point: 49°   Wind: 0mph
Humidity: 96%   Direction: NA
Pressure: 29.69"   Gusts: NA
Location:  48.2853°N, 118.523°W
Report Text: KOMK 230125Z AUTO 00000KT 7SM -RA SCT013 BKN020 OVC026 10/09 A2969 RMK AO2 P0004 T01000094
Loading
Personal Weather Stations






























Interactive Weather Map
Tropical Storm Tracking
New forecast layout! Learn more

10-Day Weather Forecast

Advertisements
Track Severe Weather on mobile